Time;durP1;ratioP1;P1;durP2;ratioP2;P2;SDS_P1;SDS_P2;PMS_P1;PMS_P2;Temp;Humidity;BMP_temperature;BMP_pressure;BME280_temperature;BME280_humidity;BME280_pressure;Samples;Min_cycle;Max_cycle;Signal;HPM_P1;HPM_P2
2021/10/20 00:00:27;;;;;;;9.10;8.30;;;9.30;99.90;;;;;;5056266;28;21162;-96
2021/10/20 00:02:55;;;;;;;9.33;8.40;;;9.20;99.90;;;;;;5038779;28;20626;-95
2021/10/20 00:05:25;;;;;;;9.67;8.83;;;9.10;99.90;;;;;;5048311;28;20666;-95
2021/10/20 00:07:52;;;;;;;10.40;8.73;;;9.10;99.90;;;;;;5046774;28;20673;-95
2021/10/20 00:10:22;;;;;;;9.17;8.47;;;9.10;99.90;;;;;;5053732;28;20674;-95
2021/10/20 00:12:59;;;;;;;8.60;7.90;;;9.00;99.90;;;;;;5044528;28;20634;-95
2021/10/20 00:15:29;;;;;;;8.80;8.07;;;9.00;99.90;;;;;;5045422;28;20689;-94
2021/10/20 00:18:02;;;;;;;8.67;8.03;;;8.80;99.90;;;;;;5055734;28;20651;-96
2021/10/20 00:20:43;;;;;;;8.63;7.93;;;9.00;99.90;;;;;;5056419;28;20666;-95
2021/10/20 00:23:12;;;;;;;9.07;8.37;;;9.00;99.90;;;;;;5055397;28;20650;-95
2021/10/20 00:25:47;;;;;;;9.37;8.57;;;9.00;99.90;;;;;;5056676;28;20706;-94
2021/10/20 00:28:18;;;;;;;9.17;8.47;;;8.90;99.90;;;;;;5062769;28;20729;-95
2021/10/20 00:30:46;;;;;;;10.43;9.43;;;8.90;99.90;;;;;;5051099;28;20651;-94
2021/10/20 00:33:15;;;;;;;8.90;8.10;;;8.90;99.90;;;;;;5055512;28;20635;-94
2021/10/20 00:35:42;;;;;;;8.60;7.80;;;8.90;99.90;;;;;;5054234;28;20622;-95
2021/10/20 00:38:12;;;;;;;8.93;8.13;;;8.90;99.90;;;;;;5050081;28;20643;-95
2021/10/20 00:40:39;;;;;;;8.63;8.00;;;8.90;99.90;;;;;;5052152;28;20852;-94
2021/10/20 00:43:06;;;;;;;9.67;8.87;;;8.80;99.90;;;;;;5052591;28;20618;-94
2021/10/20 00:45:41;;;;;;;8.73;8.00;;;9.00;99.90;;;;;;5108675;23;20704;-94
2021/10/20 00:48:10;;;;;;;10.10;9.10;;;8.90;99.90;;;;;;5076708;28;20625;-94
2021/10/20 00:50:46;;;;;;;9.30;8.50;;;8.80;99.90;;;;;;5078613;28;20668;-95
2021/10/20 00:53:15;;;;;;;9.57;8.60;;;8.80;99.90;;;;;;5078881;28;20716;-95
2021/10/20 00:55:43;;;;;;;7.97;7.27;;;8.70;99.90;;;;;;5086801;28;20721;-94
2021/10/20 00:58:10;;;;;;;8.63;7.93;;;8.70;99.90;;;;;;5072843;28;20709;-95
2021/10/20 01:29:04;;;;;;;8.90;8.10;;;8.30;99.90;;;;;;5112545;22;20649;-96
2021/10/20 01:31:38;;;;;;;9.33;8.53;;;8.30;99.90;;;;;;5090573;28;20629;-96
2021/10/20 01:34:07;;;;;;;8.83;8.13;;;8.20;99.90;;;;;;5081881;28;20608;-96
2021/10/20 01:37:21;;;;;;;8.80;8.10;;;8.20;99.90;;;;;;5094220;28;20688;-96
2021/10/20 01:39:56;;;;;;;8.77;7.90;;;8.30;99.90;;;;;;5062904;28;20617;-96
2021/10/20 01:42:24;;;;;;;9.57;8.63;;;8.20;99.90;;;;;;5080177;28;20625;-96
2021/10/20 02:19:13;;;;;;;14.27;12.97;;;8.20;99.90;;;;;;5049734;28;20638;-93
2021/10/20 02:21:40;;;;;;;14.00;12.90;;;8.20;99.90;;;;;;5049403;28;20630;-93
2021/10/20 02:24:07;;;;;;;12.87;11.77;;;8.20;99.90;;;;;;5027316;28;20681;-93
2021/10/20 02:26:34;;;;;;;14.30;13.07;;;8.20;99.90;;;;;;5017835;28;20655;-93
2021/10/20 02:29:01;;;;;;;13.70;12.47;;;8.10;99.90;;;;;;5030560;28;20638;-94
2021/10/20 02:31:28;;;;;;;12.30;11.40;;;8.00;99.90;;;;;;5020546;28;20630;-93
2021/10/20 02:33:55;;;;;;;12.43;11.37;;;8.00;99.90;;;;;;5031752;28;20639;-93
2021/10/20 02:36:31;;;;;;;12.13;11.13;;;7.90;99.90;;;;;;5034591;28;20646;-95
2021/10/20 02:38:58;;;;;;;12.27;11.30;;;7.80;99.90;;;;;;5035589;28;20654;-94
2021/10/20 02:41:25;;;;;;;12.03;11.17;;;7.80;99.90;;;;;;5036219;28;20738;-93
2021/10/20 02:43:55;;;;;;;12.43;11.40;;;7.90;99.90;;;;;;5035333;28;20637;-94
2021/10/20 02:46:22;;;;;;;12.90;11.90;;;7.80;99.90;;;;;;5027524;28;20661;-94
2021/10/20 02:48:50;;;;;;;11.87;11.03;;;7.80;99.90;;;;;;5040457;28;20689;-95
2021/10/20 02:51:17;;;;;;;13.33;12.33;;;7.80;99.90;;;;;;5039844;28;20690;-95
2021/10/20 02:54:00;;;;;;;14.73;13.10;;;7.80;99.90;;;;;;5021692;28;20634;-95
2021/10/20 02:56:31;;;;;;;14.23;12.70;;;7.90;99.90;;;;;;5036293;28;20770;-95
2021/10/20 03:01:40;;;;;;;12.90;11.80;;;7.80;99.90;;;;;;5040776;28;20623;-96
2021/10/20 03:04:09;;;;;;;11.20;10.20;;;7.90;99.90;;;;;;5042355;28;20631;-95
2021/10/20 03:06:37;;;;;;;11.10;10.20;;;7.80;99.90;;;;;;5029188;28;20714;-95
2021/10/20 03:09:07;;;;;;;10.43;9.70;;;7.80;99.90;;;;;;5042701;28;20627;-95
2021/10/20 03:11:34;;;;;;;12.40;11.30;;;7.80;99.90;;;;;;5046025;28;20654;-94
2021/10/20 03:14:02;;;;;;;10.93;10.00;;;7.80;99.90;;;;;;5033282;28;20730;-94
2021/10/20 03:16:29;;;;;;;11.57;10.50;;;7.80;99.90;;;;;;5039311;28;20677;-95
2021/10/20 03:18:56;;;;;;;11.20;10.30;;;7.80;99.90;;;;;;5032247;28;20754;-95
2021/10/20 03:21:34;;;;;;;11.17;10.17;;;7.70;99.90;;;;;;5036200;28;20680;-95
2021/10/20 03:24:03;;;;;;;10.97;10.17;;;7.80;99.90;;;;;;5034441;28;20626;-95
2021/10/20 03:26:32;;;;;;;11.20;10.40;;;7.80;99.90;;;;;;5034326;28;20672;-94
2021/10/20 03:28:59;;;;;;;11.07;10.17;;;7.90;99.90;;;;;;5028579;28;20731;-94
2021/10/20 03:31:27;;;;;;;14.13;13.10;;;7.90;99.90;;;;;;5035239;28;20666;-95
2021/10/20 03:33:54;;;;;;;12.20;11.20;;;7.80;99.90;;;;;;5034324;28;20619;-96
2021/10/20 03:36:21;;;;;;;11.97;10.97;;;7.80;99.90;;;;;;5033025;28;20808;-95
2021/10/20 03:38:49;;;;;;;11.00;10.00;;;7.80;99.90;;;;;;5054989;28;20641;-94
2021/10/20 03:41:16;;;;;;;12.30;11.07;;;7.80;99.90;;;;;;5044473;28;20708;-93
2021/10/20 03:43:44;;;;;;;11.00;10.20;;;7.70;99.90;;;;;;5044259;28;20702;-94
2021/10/20 03:46:13;;;;;;;10.07;9.37;;;7.70;99.90;;;;;;5049111;28;20657;-94
2021/10/20 03:48:40;;;;;;;10.13;9.33;;;7.70;99.90;;;;;;5060099;28;20636;-94
2021/10/20 03:51:08;;;;;;;10.20;9.40;;;7.70;99.90;;;;;;5034972;28;20746;-94
2021/10/20 03:53:35;;;;;;;9.80;8.57;;;7.70;99.90;;;;;;5031323;28;20643;-94
2021/10/20 03:56:04;;;;;;;9.67;8.80;;;7.70;99.90;;;;;;5031869;28;20737;-95
2021/10/20 03:58:31;;;;;;;10.00;9.20;;;7.70;99.90;;;;;;5036602;28;20733;-95
2021/10/20 04:01:00;;;;;;;9.00;8.30;;;7.60;99.90;;;;;;5033853;28;21057;-95
2021/10/20 04:03:27;;;;;;;9.87;9.17;;;7.60;99.90;;;;;;5037369;28;20631;-95
2021/10/20 04:05:54;;;;;;;10.70;9.80;;;7.60;99.90;;;;;;5023801;28;21073;-94
2021/10/20 04:08:23;;;;;;;9.50;8.80;;;7.70;99.90;;;;;;5031198;28;20741;-94
2021/10/20 04:10:52;;;;;;;9.17;8.37;;;7.60;99.90;;;;;;5034415;28;20690;-94
2021/10/20 04:13:20;;;;;;;9.57;8.87;;;7.50;99.90;;;;;;5033005;28;20630;-94
2021/10/20 04:15:48;;;;;;;8.07;7.50;;;7.60;99.90;;;;;;5035738;28;20667;-94
2021/10/20 04:18:16;;;;;;;8.40;7.70;;;7.50;99.90;;;;;;5036510;28;20634;-94
2021/10/20 04:23:35;;;;;;;8.80;8.10;;;7.50;99.90;;;;;;5038112;28;21219;-95
2021/10/20 04:26:02;;;;;;;8.83;8.13;;;7.70;99.90;;;;;;5038462;28;21252;-94
2021/10/20 04:28:29;;;;;;;8.30;7.70;;;7.50;99.90;;;;;;5040524;28;20623;-93
2021/10/20 04:30:58;;;;;;;8.30;7.67;;;7.50;99.90;;;;;;5035159;28;20662;-93
2021/10/20 04:36:37;;;;;;;8.70;8.00;;;7.50;99.90;;;;;;5030220;28;20651;-93
2021/10/20 04:41:48;;;;;;;9.70;8.90;;;7.40;99.90;;;;;;5034895;28;20623;-93
2021/10/20 04:44:16;;;;;;;9.60;8.80;;;7.50;99.90;;;;;;5029008;28;20978;-93
2021/10/20 04:46:42;;;;;;;9.23;8.53;;;7.50;99.90;;;;;;5034613;28;20693;-93
2021/10/20 04:49:10;;;;;;;9.13;8.33;;;7.50;99.90;;;;;;5034801;28;20627;-93
2021/10/20 04:51:40;;;;;;;8.73;7.80;;;7.50;99.90;;;;;;5036555;28;20693;-95
2021/10/20 04:54:08;;;;;;;12.13;8.87;;;7.60;99.90;;;;;;5019985;28;20639;-93
2021/10/20 04:56:35;;;;;;;9.60;8.80;;;7.80;99.90;;;;;;5030861;28;20662;-94
2021/10/20 04:59:04;;;;;;;9.10;8.40;;;7.80;99.90;;;;;;5033489;28;20730;-94
2021/10/20 05:01:31;;;;;;;9.63;8.80;;;7.80;99.90;;;;;;5039865;28;20638;-93
2021/10/20 05:03:59;;;;;;;8.93;8.03;;;7.80;99.90;;;;;;5037003;28;20637;-95
2021/10/20 05:06:27;;;;;;;9.43;8.73;;;7.80;99.90;;;;;;5036213;28;20662;-95
2021/10/20 05:08:55;;;;;;;9.40;8.60;;;7.80;99.90;;;;;;5037449;28;20732;-93
2021/10/20 05:11:22;;;;;;;10.67;9.93;;;7.70;99.90;;;;;;5031721;28;20762;-93
2021/10/20 05:13:50;;;;;;;8.80;8.10;;;7.60;99.90;;;;;;5032464;28;21245;-94
2021/10/20 05:16:17;;;;;;;8.77;8.10;;;7.60;99.90;;;;;;5031236;28;20652;-93
2021/10/20 05:18:44;;;;;;;8.23;7.63;;;7.70;99.90;;;;;;5028036;28;20648;-94
2021/10/20 05:21:11;;;;;;;8.63;8.03;;;7.60;99.90;;;;;;5023622;28;20650;-94
2021/10/20 05:23:39;;;;;;;8.20;7.50;;;7.60;99.90;;;;;;5030602;28;20975;-94
2021/10/20 05:26:13;;;;;;;7.83;7.20;;;7.50;99.90;;;;;;5029715;28;20659;-94
2021/10/20 05:28:40;;;;;;;8.77;8.00;;;7.60;99.90;;;;;;5024644;28;20645;-94
2021/10/20 05:31:10;;;;;;;11.60;10.53;;;7.60;99.90;;;;;;5035475;28;20702;-95
2021/10/20 05:33:43;;;;;;;12.23;11.23;;;7.60;99.90;;;;;;5028152;28;20742;-94
2021/10/20 05:36:11;;;;;;;14.07;12.87;;;7.50;99.90;;;;;;5045540;28;20662;-94
2021/10/20 05:38:39;;;;;;;13.00;11.50;;;7.60;99.90;;;;;;5047665;28;20623;-94
2021/10/20 05:41:07;;;;;;;17.23;15.43;;;7.60;99.90;;;;;;5036353;28;20647;-94
2021/10/20 05:43:35;;;;;;;13.37;12.20;;;7.50;99.90;;;;;;5033686;28;20669;-94
2021/10/20 05:46:02;;;;;;;11.60;10.50;;;7.50;99.90;;;;;;5030978;28;20666;-94
2021/10/20 05:48:28;;;;;;;10.93;10.03;;;7.40;99.90;;;;;;5017227;28;20729;-93
2021/10/20 05:50:57;;;;;;;12.10;10.93;;;7.40;99.90;;;;;;5031768;28;20663;-95
2021/10/20 05:53:26;;;;;;;13.20;12.10;;;7.50;99.90;;;;;;5031742;28;21080;-95
2021/10/20 05:55:56;;;;;;;9.43;8.60;;;7.50;99.90;;;;;;5033651;28;21311;-95
2021/10/20 05:58:23;;;;;;;9.17;8.47;;;7.40;99.90;;;;;;5039118;28;20662;-95
2021/10/20 06:00:54;;;;;;;12.57;11.27;;;7.40;99.90;;;;;;5030159;28;21284;-96
2021/10/20 06:03:23;;;;;;;8.17;7.47;;;7.50;99.90;;;;;;5035163;28;20642;-95
2021/10/20 06:05:50;;;;;;;7.93;7.13;;;7.50;99.90;;;;;;5044555;28;20689;-95
2021/10/20 06:08:18;;;;;;;8.43;7.63;;;7.40;99.90;;;;;;5050407;28;20618;-96
2021/10/20 06:10:45;;;;;;;8.60;7.90;;;7.40;99.90;;;;;;5053783;28;20655;-96
2021/10/20 06:13:12;;;;;;;8.40;7.50;;;7.50;99.90;;;;;;5050617;28;20674;-96
2021/10/20 06:15:41;;;;;;;9.43;8.67;;;7.60;99.90;;;;;;5058081;28;20665;-95
2021/10/20 06:18:12;;;;;;;8.90;8.20;;;7.70;99.90;;;;;;5049666;28;20642;-96
2021/10/20 06:20:40;;;;;;;8.53;7.73;;;7.60;99.90;;;;;;5043707;28;20733;-95
2021/10/20 06:23:18;;;;;;;7.90;7.20;;;7.60;99.90;;;;;;5052380;28;20649;-96
2021/10/20 06:25:45;;;;;;;8.70;7.70;;;7.80;99.90;;;;;;5049682;28;20665;-95
2021/10/20 06:28:12;;;;;;;7.97;7.37;;;7.70;99.90;;;;;;5036589;28;20635;-96
2021/10/20 06:30:39;;;;;;;9.07;7.57;;;7.70;99.90;;;;;;5033969;28;20679;-93
2021/10/20 06:33:09;;;;;;;7.27;6.63;;;7.90;99.90;;;;;;5032816;28;20745;-93
2021/10/20 06:35:54;;;;;;;8.30;7.70;;;7.90;99.90;;;;;;5033917;28;20650;-95
2021/10/20 06:38:21;;;;;;;8.20;7.40;;;8.00;99.90;;;;;;5031909;28;21189;-94
2021/10/20 06:40:49;;;;;;;7.00;6.43;;;8.00;99.90;;;;;;5033515;28;20670;-95
2021/10/20 06:43:19;;;;;;;13.60;11.73;;;8.10;99.90;;;;;;5019098;28;20655;-96
2021/10/20 06:45:46;;;;;;;10.27;9.43;;;8.20;99.90;;;;;;5032271;28;20641;-95
2021/10/20 06:48:13;;;;;;;10.13;9.13;;;8.20;99.90;;;;;;5029283;28;21221;-94
2021/10/20 06:50:43;;;;;;;11.10;8.63;;;8.40;99.90;;;;;;5034097;28;20705;-95
2021/10/20 06:53:10;;;;;;;9.23;7.40;;;8.40;99.90;;;;;;5029246;28;20844;-95
2021/10/20 06:55:37;;;;;;;17.37;8.90;;;8.40;99.90;;;;;;5032292;28;20669;-96
2021/10/20 06:58:10;;;;;;;10.57;8.23;;;8.60;99.90;;;;;;5040143;28;20636;-95
2021/10/20 07:00:51;;;;;;;12.70;11.53;;;8.70;99.90;;;;;;5050562;28;20706;-95
2021/10/20 07:03:25;;;;;;;15.43;14.03;;;8.90;99.90;;;;;;5056700;28;20635;-95
2021/10/20 07:06:29;;;;;;;10.60;9.50;;;9.00;99.90;;;;;;5054561;28;20983;-95
2021/10/20 07:09:15;;;;;;;9.40;8.10;;;9.20;99.90;;;;;;5028965;28;20638;-96
2021/10/20 07:11:49;;;;;;;73.70;67.47;;;9.30;99.90;;;;;;5034309;28;20770;-96
2021/10/20 07:14:30;;;;;;;16.03;14.63;;;9.40;99.90;;;;;;5035673;28;20697;-96
2021/10/20 07:17:20;;;;;;;12.67;11.67;;;9.50;99.90;;;;;;5033364;28;20649;-94
2021/10/20 07:23:45;;;;;;;;;;;;;;;;;;;;;
2021/10/20 07:26:21;;;;;;;7.97;7.37;;;9.70;99.90;;;;;;5028328;28;20608;-96
2021/10/20 07:28:53;;;;;;;8.17;7.47;;;10.10;99.90;;;;;;5038249;28;20696;-96
2021/10/20 07:31:33;;;;;;;6.93;6.37;;;10.30;99.90;;;;;;5041535;28;20758;-95
2021/10/20 07:34:25;;;;;;;8.13;5.73;;;10.50;99.90;;;;;;5040850;28;20629;-96
2021/10/20 07:40:53;;;;;;;;;;;;;;;;;;;;;
2021/10/20 07:44:17;;;;;;;;;;;;;;;;;;;;;
2021/10/20 07:47:26;;;;;;;8.40;6.20;;;11.50;99.90;;;;;;5032764;28;20635;-96
2021/10/20 09:46:33;;;;;;;9.10;5.00;;;17.70;99.90;;;;;;5049165;28;21179;-95
2021/10/20 09:49:03;;;;;;;5.03;3.50;;;18.20;99.90;;;;;;5040914;28;20634;-93
2021/10/20 09:51:38;;;;;;;6.30;3.57;;;18.70;99.90;;;;;;5041408;28;20686;-94
2021/10/20 09:54:25;;;;;;;3.70;3.40;;;19.50;99.90;;;;;;5022580;28;20641;-93
2021/10/20 09:56:54;;;;;;;5.20;3.30;;;20.10;99.90;;;;;;5033187;28;20652;-92
2021/10/20 09:59:29;;;;;;;8.07;3.20;;;20.60;99.90;;;;;;5033679;28;20617;-92
2021/10/20 10:01:59;;;;;;;3.33;2.90;;;20.90;99.90;;;;;;5033791;28;20871;-94
2021/10/20 10:04:36;;;;;;;2.63;2.43;;;21.10;98.80;;;;;;5038839;28;20650;-94
2021/10/20 10:07:06;;;;;;;2.13;1.93;;;21.20;97.40;;;;;;5042246;28;20626;-96
2021/10/20 10:12:24;;;;;;;3.70;2.63;;;21.60;95.30;;;;;;5048179;28;20726;-94
2021/10/20 10:14:55;;;;;;;2.53;2.43;;;21.80;96.00;;;;;;5058938;28;20564;-96
2021/10/20 10:17:40;;;;;;;2.50;2.30;;;21.90;96.10;;;;;;5055511;28;20627;-95
2021/10/20 10:20:10;;;;;;;2.57;2.23;;;21.80;95.10;;;;;;5054898;28;20631;-95
2021/10/20 10:22:49;;;;;;;5.70;2.13;;;21.40;94.40;;;;;;5055582;28;20698;-96
2021/10/20 10:25:17;;;;;;;2.27;2.07;;;21.70;94.90;;;;;;5043877;28;20633;-93
2021/10/20 10:28:12;;;;;;;2.10;2.00;;;21.70;94.70;;;;;;5049875;28;20634;-94
2021/10/20 10:30:50;;;;;;;2.20;2.00;;;21.60;94.20;;;;;;5042951;28;20649;-96
2021/10/20 10:33:24;;;;;;;2.40;2.20;;;21.40;94.50;;;;;;5053304;28;20615;-95
2021/10/20 10:52:42;;;;;;;3.43;2.20;;;21.40;93.80;;;;;;5078799;28;20684;-96
2021/10/20 11:03:27;;;;;;;2.67;2.13;;;23.20;92.00;;;;;;5505878;22;20642;-96
2021/10/20 11:06:03;;;;;;;2.97;2.73;;;23.40;90.10;;;;;;5106639;28;20623;-96
2021/10/20 11:57:55;;;;;;;2.33;2.13;;;25.90;80.80;;;;;;5095947;27;20667;-96
2021/10/20 12:00:27;;;;;;;2.60;2.40;;;26.40;80.10;;;;;;5068074;28;20621;-96
2021/10/20 12:03:02;;;;;;;2.20;2.10;;;25.80;81.00;;;;;;5090531;28;20611;-96
2021/10/20 12:05:46;;;;;;;3.50;2.20;;;24.60;84.00;;;;;;5124448;22;20640;-96
2021/10/20 14:38:53;;;;;;;2.03;1.93;;;23.80;92.90;;;;;;5206452;22;20664;-96
2021/10/20 14:47:09;;;;;;;2.20;2.00;;;24.80;91.00;;;;;;5091838;28;20676;-96
2021/10/20 14:49:54;;;;;;;2.23;1.93;;;25.10;90.20;;;;;;5094975;28;20617;-96
2021/10/20 14:55:49;;;;;;;5.00;2.10;;;25.20;88.70;;;;;;5084379;28;20650;-96
2021/10/20 14:58:28;;;;;;;3.63;1.93;;;25.60;89.10;;;;;;5074071;28;20636;-96
2021/10/20 15:00:58;;;;;;;4.40;2.00;;;25.40;87.90;;;;;;5070937;28;20696;-96
2021/10/20 15:06:12;;;;;;;5.33;2.10;;;25.70;87.70;;;;;;5063328;28;20754;-96
2021/10/20 15:08:43;;;;;;;2.70;1.97;;;26.20;86.00;;;;;;5061146;28;21314;-96
2021/10/20 15:11:29;;;;;;;4.60;2.13;;;25.60;87.00;;;;;;5059729;28;21183;-96
2021/10/20 15:13:58;;;;;;;2.00;1.90;;;25.80;87.60;;;;;;5053319;28;20653;-96
2021/10/20 15:16:39;;;;;;;3.10;2.30;;;25.80;86.70;;;;;;5065967;28;20654;-96
2021/10/20 15:19:25;;;;;;;2.60;2.00;;;25.80;87.40;;;;;;5066350;28;20629;-96
2021/10/20 15:21:54;;;;;;;5.53;2.40;;;25.60;87.20;;;;;;5068429;28;21195;-96
2021/10/20 15:24:23;;;;;;;2.13;1.93;;;24.60;90.20;;;;;;5059688;28;20772;-96
2021/10/20 15:27:02;;;;;;;7.53;2.40;;;24.60;91.30;;;;;;5055969;28;21168;-96
2021/10/20 15:29:33;;;;;;;4.33;2.90;;;24.50;91.50;;;;;;5055521;28;20645;-96
2021/10/20 15:32:11;;;;;;;2.63;2.10;;;23.50;93.60;;;;;;5058812;28;20653;-96
2021/10/20 15:34:45;;;;;;;4.13;2.13;;;23.40;94.80;;;;;;5054990;28;20665;-96
2021/10/20 15:37:17;;;;;;;3.20;1.90;;;22.90;95.70;;;;;;5054639;28;20629;-95
2021/10/20 15:39:45;;;;;;;2.63;2.43;;;22.90;95.80;;;;;;5058165;28;20654;-96
2021/10/20 16:02:08;;;;;;;3.70;2.27;;;21.40;99.90;;;;;;5087167;28;20683;-95
2021/10/20 16:09:46;;;;;;;3.63;2.37;;;21.00;99.90;;;;;;5157707;22;20652;-96
2021/10/20 16:12:17;;;;;;;3.63;2.37;;;20.80;99.90;;;;;;5078095;28;20712;-96
2021/10/20 16:17:52;;;;;;;3.20;2.07;;;20.60;99.90;;;;;;5086296;26;20621;-95
2021/10/20 16:20:43;;;;;;;2.50;2.30;;;20.40;99.90;;;;;;5083772;28;20620;-95
2021/10/20 16:26:16;;;;;;;2.77;2.57;;;20.30;99.90;;;;;;5175069;22;20672;-96
2021/10/20 16:28:58;;;;;;;2.90;2.60;;;20.20;99.90;;;;;;5067794;28;20725;-95
2021/10/20 16:31:26;;;;;;;2.97;2.33;;;20.20;99.90;;;;;;5081411;28;20796;-93
2021/10/20 16:34:04;;;;;;;2.80;2.60;;;20.10;99.90;;;;;;5083768;28;20759;-96
2021/10/20 16:36:32;;;;;;;3.10;2.40;;;20.00;99.90;;;;;;5052792;28;20653;-93
2021/10/20 16:39:01;;;;;;;3.40;3.10;;;19.90;99.90;;;;;;5054414;28;20719;-94
2021/10/20 16:41:31;;;;;;;3.43;3.20;;;19.90;99.90;;;;;;5038408;28;20666;-95
2021/10/20 16:44:01;;;;;;;4.53;3.00;;;19.80;99.90;;;;;;5046954;28;21222;-95
2021/10/20 16:46:38;;;;;;;2.50;2.30;;;19.70;99.90;;;;;;5052513;28;20729;-94
2021/10/20 16:49:12;;;;;;;2.93;2.70;;;19.60;99.90;;;;;;5054902;28;20661;-94
2021/10/20 16:51:43;;;;;;;3.10;2.80;;;19.60;99.90;;;;;;5051537;28;20737;-95
2021/10/20 16:54:13;;;;;;;4.50;2.93;;;19.40;99.90;;;;;;5056295;28;21192;-94
2021/10/20 16:56:48;;;;;;;8.03;2.87;;;19.30;99.90;;;;;;5063776;28;20625;-95
2021/10/20 16:59:15;;;;;;;9.47;3.43;;;19.10;99.90;;;;;;5054331;28;20637;-95
2021/10/20 17:01:42;;;;;;;2.63;2.47;;;19.00;99.90;;;;;;5056833;28;20638;-95
2021/10/20 17:04:11;;;;;;;4.23;3.00;;;18.80;99.90;;;;;;5054928;28;20622;-95
2021/10/20 17:06:38;;;;;;;3.97;3.67;;;18.60;99.90;;;;;;5057630;28;20692;-94
2021/10/20 17:09:06;;;;;;;3.07;2.80;;;18.50;99.90;;;;;;5047312;28;21577;-94
2021/10/20 17:11:34;;;;;;;3.10;2.90;;;18.30;99.90;;;;;;5048707;28;20590;-94
2021/10/20 17:14:02;;;;;;;3.07;2.77;;;18.20;99.90;;;;;;5056234;28;20658;-94
2021/10/20 17:16:30;;;;;;;2.40;2.20;;;18.00;99.90;;;;;;5052962;28;20709;-96
2021/10/20 17:18:57;;;;;;;4.63;3.27;;;17.70;99.90;;;;;;5047607;28;20645;-95
2021/10/20 17:34:40;;;;;;;3.90;3.60;;;17.30;99.90;;;;;;5433225;22;20681;-95
2021/10/20 17:37:09;;;;;;;4.10;3.20;;;17.10;99.90;;;;;;5077586;28;20629;-95
2021/10/20 17:39:36;;;;;;;5.20;3.97;;;16.80;99.90;;;;;;5071849;28;20708;-94
2021/10/20 17:42:04;;;;;;;4.50;3.70;;;16.80;99.90;;;;;;5080838;28;20644;-93
2021/10/20 17:44:32;;;;;;;4.47;3.60;;;16.90;99.90;;;;;;5071374;28;20686;-94
2021/10/20 17:46:59;;;;;;;3.33;3.13;;;16.80;99.90;;;;;;5055930;28;20625;-95
2021/10/20 17:49:26;;;;;;;6.60;3.50;;;16.80;99.90;;;;;;5046754;28;20635;-93
2021/10/20 17:51:55;;;;;;;7.40;4.17;;;16.80;99.90;;;;;;5051384;28;20629;-94
2021/10/20 17:54:23;;;;;;;5.70;3.23;;;16.70;99.90;;;;;;5052798;28;20761;-93
2021/10/20 17:56:52;;;;;;;3.97;3.67;;;16.80;99.90;;;;;;5052389;28;20633;-94
2021/10/20 17:59:19;;;;;;;3.83;3.43;;;16.80;99.90;;;;;;5051581;28;20649;-95
2021/10/20 18:01:46;;;;;;;7.40;3.83;;;16.80;99.90;;;;;;5052447;28;21259;-94
2021/10/20 18:04:21;;;;;;;5.33;4.80;;;16.90;99.90;;;;;;5055742;28;20666;-95
2021/10/20 18:06:49;;;;;;;3.37;3.13;;;17.00;99.90;;;;;;5040632;28;20647;-95
2021/10/20 18:09:18;;;;;;;3.53;3.23;;;17.00;99.90;;;;;;5070089;22;20670;-95
2021/10/20 18:11:48;;;;;;;4.27;3.67;;;16.90;99.90;;;;;;5033557;28;20634;-94
2021/10/20 18:14:18;;;;;;;3.97;3.50;;;16.90;99.90;;;;;;5051035;28;20658;-94
2021/10/20 18:16:46;;;;;;;4.93;3.80;;;16.80;99.90;;;;;;5049307;28;20642;-94
2021/10/20 18:19:16;;;;;;;4.43;3.93;;;16.70;99.90;;;;;;5053282;28;20663;-95
2021/10/20 18:21:56;;;;;;;5.57;5.07;;;16.60;99.90;;;;;;5046702;28;20710;-95
2021/10/20 18:24:23;;;;;;;5.13;4.73;;;16.50;99.90;;;;;;5043485;28;20626;-96
2021/10/20 18:26:54;;;;;;;9.87;5.03;;;16.40;99.90;;;;;;5040408;28;20654;-95
2021/10/20 18:29:21;;;;;;;6.00;5.40;;;16.40;99.90;;;;;;5038599;28;20681;-95
2021/10/20 18:31:52;;;;;;;7.60;5.00;;;16.40;99.90;;;;;;5026999;28;20674;-96
2021/10/20 18:34:24;;;;;;;6.33;5.73;;;16.30;99.90;;;;;;5039966;28;20786;-96
2021/10/20 18:36:58;;;;;;;7.53;6.60;;;16.40;99.90;;;;;;5032589;28;20618;-96
2021/10/20 18:39:26;;;;;;;6.90;6.30;;;16.30;99.90;;;;;;5032794;28;20642;-95
2021/10/20 18:41:55;;;;;;;7.37;6.70;;;16.30;99.90;;;;;;5039797;28;20633;-95
2021/10/20 18:44:25;;;;;;;7.13;6.07;;;16.30;99.90;;;;;;5037389;28;20722;-95
2021/10/20 18:46:53;;;;;;;11.67;6.37;;;16.30;99.90;;;;;;5035604;28;20630;-95
2021/10/20 18:49:21;;;;;;;6.77;6.17;;;16.30;99.90;;;;;;5039861;28;20654;-96
2021/10/20 18:51:48;;;;;;;6.97;6.37;;;16.20;99.90;;;;;;5039700;28;20752;-94
2021/10/20 18:54:18;;;;;;;7.13;6.43;;;16.30;99.90;;;;;;5037912;28;20793;-96
2021/10/20 18:56:48;;;;;;;6.47;5.97;;;16.30;99.90;;;;;;5031994;28;20606;-95
2021/10/20 18:59:33;;;;;;;7.90;6.70;;;16.20;99.90;;;;;;5056753;28;20664;-96
2021/10/20 19:02:12;;;;;;;7.57;6.57;;;16.20;99.90;;;;;;5053641;28;20634;-95
2021/10/20 19:04:45;;;;;;;7.23;6.00;;;16.20;99.90;;;;;;5039199;28;20627;-95
2021/10/20 19:07:16;;;;;;;7.43;5.70;;;16.10;99.90;;;;;;5037404;28;20714;-95
2021/10/20 19:09:47;;;;;;;5.93;5.33;;;16.10;99.90;;;;;;5042742;28;21331;-93
2021/10/20 19:12:34;;;;;;;5.30;4.90;;;16.10;99.90;;;;;;5036821;28;20641;-96
2021/10/20 19:17:58;;;;;;;8.17;6.00;;;16.00;99.90;;;;;;5044031;28;20718;-96
2021/10/20 19:20:26;;;;;;;7.43;6.13;;;15.90;99.90;;;;;;5037646;28;20728;-96
2021/10/20 19:22:59;;;;;;;6.57;5.97;;;15.90;99.90;;;;;;5044065;28;20627;-96
2021/10/20 19:25:29;;;;;;;6.37;5.77;;;15.80;99.90;;;;;;5055159;28;20626;-96
2021/10/20 19:28:09;;;;;;;5.30;4.80;;;15.80;99.90;;;;;;5046438;28;20674;-96
2021/10/20 19:36:15;;;;;;;6.17;5.00;;;15.80;99.90;;;;;;5082689;28;20679;-96
2021/10/20 19:39:06;;;;;;;5.77;4.27;;;15.70;99.90;;;;;;5072557;28;20628;-96
2021/10/20 20:01:17;;;;;;;6.20;5.43;;;15.40;99.90;;;;;;5065505;28;20613;-96
2021/10/20 20:18:39;;;;;;;6.57;6.07;;;15.00;99.90;;;;;;5075561;28;20625;-96
2021/10/20 20:40:47;;;;;;;6.50;5.90;;;14.90;99.90;;;;;;5053053;28;20650;-96
2021/10/20 20:43:39;;;;;;;5.83;5.03;;;14.90;99.90;;;;;;5057860;28;20956;-96
2021/10/20 20:46:09;;;;;;;5.90;5.23;;;14.90;99.90;;;;;;5057843;28;21276;-96
2021/10/20 20:54:52;;;;;;;8.30;7.53;;;15.00;99.90;;;;;;5063600;28;20669;-96
2021/10/20 20:57:49;;;;;;;6.83;5.10;;;15.00;99.90;;;;;;5066900;28;20657;-95
2021/10/20 21:00:21;;;;;;;5.90;5.07;;;15.10;99.90;;;;;;5067740;28;20713;-95
2021/10/20 21:02:48;;;;;;;5.90;5.40;;;15.10;99.90;;;;;;5055514;28;21075;-96
2021/10/20 21:05:15;;;;;;;5.43;5.03;;;15.10;99.90;;;;;;5055596;28;20629;-96
2021/10/20 21:07:51;;;;;;;5.40;4.90;;;15.10;99.90;;;;;;5062444;28;20749;-95
2021/10/20 21:10:21;;;;;;;6.00;5.40;;;15.10;99.90;;;;;;5056771;28;20656;-95
2021/10/20 21:12:53;;;;;;;6.13;5.63;;;15.00;99.90;;;;;;5065350;28;20705;-96
2021/10/20 21:15:27;;;;;;;5.30;4.90;;;15.10;99.90;;;;;;5066573;28;20632;-96
2021/10/20 21:23:42;;;;;;;5.43;5.10;;;15.10;99.90;;;;;;5058074;28;20606;-96
2021/10/20 21:45:20;;;;;;;5.60;5.10;;;15.40;99.90;;;;;;5067226;28;20681;-96
2021/10/20 22:08:23;;;;;;;6.30;5.63;;;15.50;99.90;;;;;;5045258;28;20615;-96
2021/10/20 22:10:51;;;;;;;5.77;5.37;;;15.40;99.90;;;;;;5056335;28;20667;-95
2021/10/20 22:13:22;;;;;;;6.20;5.70;;;15.40;99.90;;;;;;5042110;28;20739;-96
2021/10/20 22:15:51;;;;;;;4.87;4.30;;;15.40;99.90;;;;;;5055855;28;20720;-95
2021/10/20 22:18:19;;;;;;;6.93;5.07;;;15.40;99.90;;;;;;5056469;28;20623;-95
2021/10/20 22:20:46;;;;;;;6.97;5.30;;;15.50;99.90;;;;;;5048124;28;20701;-95
2021/10/20 22:23:13;;;;;;;6.90;5.53;;;15.50;99.90;;;;;;5039803;28;20635;-96
2021/10/20 22:25:44;;;;;;;4.90;4.53;;;15.70;99.90;;;;;;5035088;28;20641;-95
2021/10/20 22:28:14;;;;;;;4.70;4.30;;;15.70;99.90;;;;;;5033044;28;20646;-96
2021/10/20 22:30:44;;;;;;;5.33;4.83;;;15.60;99.90;;;;;;5044392;28;20662;-96
2021/10/20 22:33:12;;;;;;;4.57;4.17;;;15.60;99.90;;;;;;5041184;28;20660;-94
2021/10/20 22:35:41;;;;;;;6.07;5.47;;;15.50;99.90;;;;;;5044546;28;20636;-95
2021/10/20 22:38:09;;;;;;;6.73;5.47;;;15.70;99.90;;;;;;5039718;28;20677;-95
2021/10/20 22:40:39;;;;;;;6.27;4.90;;;15.80;99.90;;;;;;5035702;28;20716;-95
2021/10/20 22:43:13;;;;;;;6.40;5.80;;;16.00;99.90;;;;;;5038408;28;20625;-95
2021/10/20 22:45:40;;;;;;;6.57;5.40;;;16.00;99.90;;;;;;5034041;28;20741;-94
2021/10/20 22:48:08;;;;;;;5.30;4.80;;;16.10;99.90;;;;;;5033943;28;20731;-93
2021/10/20 22:50:36;;;;;;;6.43;5.87;;;16.10;99.90;;;;;;5036221;28;21014;-93
2021/10/20 22:53:03;;;;;;;5.27;4.87;;;16.10;99.90;;;;;;5031680;28;20630;-95
2021/10/20 22:55:30;;;;;;;6.30;5.80;;;16.10;99.90;;;;;;5027873;28;20670;-95
2021/10/20 22:57:57;;;;;;;6.77;6.07;;;16.10;99.90;;;;;;5032818;28;20675;-94
2021/10/20 23:00:26;;;;;;;6.50;6.00;;;16.10;99.90;;;;;;5031796;28;20670;-94
2021/10/20 23:02:53;;;;;;;6.17;5.57;;;16.10;99.90;;;;;;5030923;28;21057;-94
2021/10/20 23:05:20;;;;;;;6.07;5.47;;;16.10;99.90;;;;;;5025989;28;20720;-94
2021/10/20 23:07:50;;;;;;;6.00;5.33;;;16.10;99.90;;;;;;5025876;28;21246;-94